createdAt,value
2019-02-22T00:00:13.222Z,7.36
2019-02-22T00:01:38.794Z,7.37
2019-02-22T00:02:47.005Z,7.38
2019-02-22T00:03:55.091Z,7.36
2019-02-22T00:05:03.420Z,7.34
2019-02-22T00:06:12.012Z,7.34
2019-02-22T00:07:20.594Z,7.34
2019-02-22T00:08:28.560Z,7.33
2019-02-22T00:09:36.798Z,7.36
2019-02-22T00:10:45.182Z,7.36
2019-02-22T00:11:53.754Z,7.36
2019-02-22T00:13:01.767Z,7.38
2019-02-22T00:14:09.865Z,7.34
2019-02-22T00:15:17.961Z,7.33
2019-02-22T00:16:26.192Z,7.33
2019-02-22T00:17:34.707Z,7.31
2019-02-22T00:18:43.092Z,7.32
2019-02-22T00:19:51.286Z,7.31
2019-02-22T00:20:59.330Z,7.29
2019-02-22T00:22:07.732Z,7.30
2019-02-22T00:23:15.960Z,7.30
2019-02-22T00:24:24.137Z,7.30
2019-02-22T00:25:32.114Z,7.32
2019-02-22T00:26:40.048Z,7.33
2019-02-22T00:27:48.093Z,7.33
2019-02-22T00:28:56.301Z,7.34
2019-02-22T00:30:04.811Z,7.36
2019-02-22T00:31:13.225Z,7.36
2019-02-22T00:32:21.930Z,7.36
2019-02-22T00:33:29.949Z,7.36
2019-02-22T00:34:38.286Z,7.43
2019-02-22T00:35:46.379Z,7.42
2019-02-22T00:36:54.438Z,7.43
2019-02-22T00:38:02.557Z,7.42
2019-02-22T00:39:10.996Z,7.42
2019-02-22T00:40:19.534Z,7.42
2019-02-22T00:41:27.543Z,7.43
2019-02-22T00:42:35.868Z,7.42
2019-02-22T00:43:44.206Z,7.43
2019-02-22T00:44:52.758Z,7.42
2019-02-22T00:46:01.294Z,7.41
2019-02-22T00:47:09.653Z,7.41
2019-02-22T00:48:17.867Z,7.41
2019-02-22T00:49:26.167Z,7.39
2019-02-22T00:50:34.179Z,7.41
2019-02-22T00:51:42.592Z,7.40
2019-02-22T00:52:51.255Z,7.40
2019-02-22T00:53:59.617Z,7.39
2019-02-22T00:55:08.466Z,7.42
2019-02-22T00:56:16.754Z,7.41
2019-02-22T00:57:25.134Z,7.43
2019-02-22T00:58:33.529Z,7.43
2019-02-22T00:59:42.600Z,7.44
2019-02-22T01:00:51.229Z,7.45
2019-02-22T01:02:00.153Z,7.43
2019-02-22T01:03:08.829Z,7.43
2019-02-22T01:04:17.713Z,7.43
2019-02-22T01:05:26.126Z,7.45
2019-02-22T01:06:34.521Z,7.44
2019-02-22T01:07:43.113Z,7.48
2019-02-22T01:08:51.699Z,7.49
2019-02-22T01:10:00.425Z,7.49
2019-02-22T01:11:08.886Z,7.49
2019-02-22T01:12:17.366Z,7.52
2019-02-22T01:13:25.978Z,7.59
2019-02-22T01:14:34.712Z,7.62
2019-02-22T01:15:43.266Z,7.64
2019-02-22T01:16:51.909Z,7.65
2019-02-22T01:18:00.183Z,7.65
2019-02-22T01:19:08.890Z,7.66
2019-02-22T01:20:17.141Z,7.62
2019-02-22T01:21:25.443Z,7.62
2019-02-22T01:22:33.828Z,7.65
2019-02-22T01:23:42.685Z,7.66
2019-02-22T01:24:50.940Z,7.68
2019-02-22T01:25:59.428Z,7.70
2019-02-22T01:27:08.090Z,7.67
2019-02-22T01:28:16.899Z,7.68
2019-02-22T01:29:25.213Z,7.65
2019-02-22T01:30:34.618Z,7.66
2019-02-22T01:31:43.102Z,7.69
2019-02-22T01:32:51.622Z,7.68
2019-02-22T01:34:00.262Z,7.69
2019-02-22T01:35:09.200Z,7.66
2019-02-22T01:36:18.370Z,7.64
2019-02-22T01:37:26.913Z,7.58
2019-02-22T01:38:35.660Z,7.55
2019-02-22T01:39:44.429Z,7.52
2019-02-22T01:40:53.261Z,7.52
2019-02-22T01:42:02.227Z,7.51
2019-02-22T01:43:10.811Z,7.51
2019-02-22T01:44:22.293Z,7.49
2019-02-22T01:45:30.698Z,7.50
2019-02-22T01:46:39.266Z,7.51
2019-02-22T01:47:47.553Z,7.53
2019-02-22T01:48:55.574Z,7.55
2019-02-22T01:50:05.380Z,7.51
2019-02-22T01:51:13.985Z,7.49
2019-02-22T01:52:22.716Z,7.51
2019-02-22T01:53:30.753Z,7.50
2019-02-22T01:54:40.021Z,7.49
2019-02-22T01:55:48.397Z,7.49
2019-02-22T01:56:56.589Z,7.47
2019-02-22T01:58:04.825Z,7.50
2019-02-22T01:59:13.337Z,7.51
2019-02-22T02:00:21.965Z,7.52
2019-02-22T02:01:30.151Z,7.57
2019-02-22T02:02:38.689Z,7.58
2019-02-22T02:03:46.746Z,7.59
2019-02-22T02:04:54.852Z,7.56
2019-02-22T02:06:03.682Z,7.55
2019-02-22T02:07:12.362Z,7.54
2019-02-22T02:08:21.146Z,7.54
2019-02-22T02:09:29.581Z,7.54
2019-02-22T02:10:37.835Z,7.51
2019-02-22T02:11:46.035Z,7.49
2019-02-22T02:12:54.595Z,7.48
2019-02-22T02:14:03.018Z,7.49
2019-02-22T02:15:11.471Z,7.51
2019-02-22T02:16:20.184Z,7.52
2019-02-22T02:17:28.457Z,7.51
2019-02-22T02:18:37.270Z,7.51
2019-02-22T02:19:45.600Z,7.52
2019-02-22T02:20:54.431Z,7.56
2019-02-22T02:22:03.084Z,7.56
2019-02-22T02:23:11.436Z,7.58
2019-02-22T02:24:20.344Z,7.64
2019-02-22T02:25:28.672Z,7.64
2019-02-22T02:26:37.094Z,7.65
2019-02-22T02:27:45.278Z,7.68
2019-02-22T02:28:53.761Z,7.73
2019-02-22T02:30:03.886Z,7.77
2019-02-22T02:31:12.332Z,7.78
2019-02-22T02:32:20.811Z,7.79
2019-02-22T02:33:29.507Z,7.82
2019-02-22T02:34:38.025Z,7.84
2019-02-22T02:35:46.413Z,7.82
2019-02-22T02:36:55.234Z,7.81
2019-02-22T02:38:03.855Z,7.81
2019-02-22T02:39:12.611Z,7.82
2019-02-22T02:40:22.000Z,7.83
2019-02-22T02:41:31.114Z,7.84
2019-02-22T02:42:39.612Z,7.89
2019-02-22T02:43:48.021Z,7.91
2019-02-22T02:44:57.182Z,7.93
2019-02-22T02:46:05.998Z,7.93
2019-02-22T02:47:14.905Z,7.90
2019-02-22T02:48:23.624Z,7.90
2019-02-22T02:49:32.399Z,7.89
2019-02-22T02:50:40.546Z,7.88
2019-02-22T02:51:49.908Z,7.88
2019-02-22T02:52:58.796Z,7.86
2019-02-22T02:54:07.361Z,7.84
2019-02-22T02:55:29.829Z,7.86
2019-02-22T02:56:38.636Z,7.86
2019-02-22T02:57:48.001Z,7.83
2019-02-22T02:58:56.249Z,7.82
2019-02-22T03:00:07.941Z,7.82
2019-02-22T03:01:16.516Z,7.80
2019-02-22T03:02:25.894Z,7.82
2019-02-22T03:03:33.874Z,7.83
2019-02-22T03:04:42.395Z,7.79
2019-02-22T03:05:53.633Z,7.81
2019-02-22T03:07:03.458Z,7.82
2019-02-22T03:08:12.499Z,7.80
2019-02-22T03:09:21.169Z,7.82
2019-02-22T03:10:31.460Z,7.82
2019-02-22T03:11:39.538Z,7.84
2019-02-22T03:12:48.269Z,7.86
2019-02-22T03:13:56.791Z,7.86
2019-02-22T03:15:06.587Z,7.85
2019-02-22T03:16:15.288Z,7.88
2019-02-22T03:17:24.000Z,7.90
2019-02-22T03:18:32.088Z,7.93
2019-02-22T03:19:40.491Z,7.95
2019-02-22T03:20:48.846Z,7.96
2019-02-22T03:21:56.782Z,7.97
2019-02-22T03:23:05.350Z,7.95
2019-02-22T03:24:13.531Z,7.92
2019-02-22T03:25:21.906Z,7.92
2019-02-22T03:26:30.252Z,7.92
2019-02-22T03:27:38.441Z,7.93
2019-02-22T03:28:46.532Z,7.96
2019-02-22T03:29:54.955Z,8.00
2019-02-22T03:31:03.562Z,8.00
2019-02-22T03:32:11.759Z,8.02
2019-02-22T03:33:19.852Z,8.04
2019-02-22T03:34:27.942Z,8.07
2019-02-22T03:35:36.249Z,8.10
2019-02-22T03:36:44.655Z,8.15
2019-02-22T03:37:52.944Z,8.18
2019-02-22T03:39:00.974Z,8.20
2019-02-22T03:40:10.313Z,8.21
2019-02-22T03:41:18.229Z,8.24
2019-02-22T03:42:26.571Z,8.25
2019-02-22T03:43:34.623Z,8.28
2019-02-22T03:44:43.045Z,8.31
2019-02-22T03:45:51.034Z,8.35
2019-02-22T03:46:59.230Z,8.37
2019-02-22T03:48:07.790Z,8.40
2019-02-22T03:49:16.696Z,8.41
2019-02-22T03:50:25.000Z,8.44
2019-02-22T03:51:33.091Z,8.47
2019-02-22T03:52:42.925Z,8.49
2019-02-22T03:53:53.755Z,8.52
2019-02-22T03:55:01.738Z,8.53
2019-02-22T03:56:10.403Z,8.54
2019-02-22T03:57:18.659Z,8.56
2019-02-22T03:58:26.676Z,8.61
2019-02-22T03:59:34.999Z,8.62
2019-02-22T04:00:43.182Z,8.63
2019-02-22T04:01:51.465Z,8.65
2019-02-22T04:02:59.897Z,8.66
2019-02-22T04:04:08.316Z,8.67
2019-02-22T04:05:16.588Z,8.67
2019-02-22T04:06:25.314Z,8.69
2019-02-22T04:07:33.372Z,8.70
2019-02-22T04:08:41.803Z,8.71
2019-02-22T04:09:50.125Z,8.72
2019-02-22T04:10:58.226Z,8.74
2019-02-22T04:12:06.223Z,8.75
2019-02-22T04:13:14.511Z,8.74
2019-02-22T04:14:22.707Z,8.77
2019-02-22T04:15:30.926Z,8.78
2019-02-22T04:16:39.207Z,8.80
2019-02-22T04:17:47.348Z,8.81
2019-02-22T04:18:55.495Z,8.82
2019-02-22T04:20:04.518Z,8.83
2019-02-22T04:21:12.916Z,8.84
2019-02-22T04:22:21.070Z,8.82
2019-02-22T04:23:29.106Z,8.77
2019-02-22T04:24:37.707Z,8.75
2019-02-22T04:25:45.815Z,8.74
2019-02-22T04:26:54.376Z,8.72
2019-02-22T04:28:02.962Z,8.72
2019-02-22T04:29:11.419Z,8.71
2019-02-22T04:30:20.251Z,8.71
2019-02-22T04:31:28.864Z,8.71
2019-02-22T04:32:37.173Z,8.69
2019-02-22T04:33:45.415Z,8.69
2019-02-22T04:34:53.660Z,8.68
2019-02-22T04:36:02.317Z,8.69
2019-02-22T04:37:10.930Z,8.69
2019-02-22T04:38:19.344Z,8.67
2019-02-22T04:39:27.453Z,8.67
2019-02-22T04:40:35.803Z,8.66
2019-02-22T04:41:44.710Z,8.64
2019-02-22T04:42:54.483Z,8.63
2019-02-22T04:44:03.078Z,8.63
2019-02-22T04:45:11.388Z,8.63
2019-02-22T04:46:19.568Z,8.61
2019-02-22T04:47:27.749Z,8.59
2019-02-22T04:48:36.160Z,8.58
2019-02-22T04:49:44.551Z,8.53
2019-02-22T04:50:53.501Z,8.47
2019-02-22T04:52:01.671Z,8.42
2019-02-22T04:53:09.958Z,8.38
2019-02-22T04:54:18.110Z,8.35
2019-02-22T04:55:29.197Z,8.33
2019-02-22T04:56:36.546Z,8.28
2019-02-22T04:57:44.777Z,8.19
2019-02-22T04:58:53.151Z,8.10
2019-02-22T05:00:01.236Z,8.07
2019-02-22T05:01:09.072Z,8.05
2019-02-22T05:02:17.398Z,7.96
2019-02-22T05:03:25.683Z,7.89
2019-02-22T05:04:33.855Z,7.82
2019-02-22T05:05:42.123Z,7.78
2019-02-22T05:06:50.683Z,7.73
2019-02-22T05:07:58.813Z,7.67
2019-02-22T05:09:07.481Z,7.63
2019-02-22T05:10:15.550Z,7.60
2019-02-22T05:11:24.671Z,7.56
2019-02-22T05:12:32.812Z,7.49
2019-02-22T05:13:41.513Z,7.42
2019-02-22T05:14:49.534Z,7.37
2019-02-22T05:15:57.745Z,7.32
2019-02-22T05:17:06.279Z,7.27
2019-02-22T05:18:16.600Z,7.21
2019-02-22T05:19:25.429Z,7.14
2019-02-22T05:20:34.232Z,7.08
2019-02-22T05:21:42.753Z,7.04
2019-02-22T05:23:02.989Z,7.02
2019-02-22T05:24:00.993Z,7.02
2019-02-22T05:25:09.881Z,7.01
2019-02-22T05:26:18.569Z,6.99
2019-02-22T05:27:27.027Z,7.00
2019-02-22T05:28:35.701Z,6.94
2019-02-22T05:29:43.904Z,6.87
2019-02-22T05:30:52.061Z,6.82
2019-02-22T05:32:00.410Z,6.76
2019-02-22T05:33:08.510Z,6.69
2019-02-22T05:34:16.826Z,6.64
2019-02-22T05:35:25.557Z,6.59
2019-02-22T05:36:33.718Z,6.58
2019-02-22T05:37:42.369Z,6.53
2019-02-22T05:38:50.618Z,6.52
2019-02-22T05:40:00.326Z,6.51
2019-02-22T05:41:09.289Z,6.50
2019-02-22T05:42:22.862Z,6.51
2019-02-22T05:43:27.453Z,6.49
2019-02-22T05:44:35.967Z,6.45
2019-02-22T05:45:45.407Z,6.40
2019-02-22T05:47:00.364Z,6.33
2019-02-22T05:48:03.524Z,6.30
2019-02-22T05:49:11.813Z,6.24
2019-02-22T05:50:20.496Z,6.25
2019-02-22T05:51:28.698Z,6.23
2019-02-22T05:52:37.103Z,6.23
2019-02-22T05:53:47.107Z,6.23
2019-02-22T05:54:55.366Z,6.21
2019-02-22T05:56:03.911Z,6.20
2019-02-22T05:57:14.190Z,6.21
2019-02-22T05:58:22.080Z,6.22
2019-02-22T05:59:30.887Z,6.15
2019-02-22T06:00:39.584Z,6.08
2019-02-22T06:01:48.224Z,6.03
2019-02-22T06:02:56.528Z,5.98
2019-02-22T06:04:05.588Z,5.87
2019-02-22T06:05:13.625Z,5.78
2019-02-22T06:06:21.707Z,5.76
2019-02-22T06:07:30.440Z,5.73
2019-02-22T06:08:38.477Z,5.66
2019-02-22T06:09:47.076Z,5.60
2019-02-22T06:10:55.341Z,5.55
2019-02-22T06:12:03.525Z,5.54
2019-02-22T06:13:11.685Z,5.52
2019-02-22T06:14:20.128Z,5.54
2019-02-22T06:15:28.338Z,5.50
2019-02-22T06:16:38.585Z,5.47
2019-02-22T06:17:47.378Z,5.43
2019-02-22T06:18:55.540Z,5.36
2019-02-22T06:20:09.154Z,5.36
2019-02-22T06:21:17.444Z,5.40
2019-02-22T06:22:29.530Z,5.42
2019-02-22T06:23:35.981Z,5.44
2019-02-22T06:24:44.486Z,5.44
2019-02-22T06:25:52.724Z,5.45
2019-02-22T06:27:01.418Z,5.40
2019-02-22T06:28:10.017Z,5.41
2019-02-22T06:29:18.493Z,5.40
2019-02-22T06:30:26.827Z,5.42
2019-02-22T06:31:35.568Z,5.37
2019-02-22T06:32:44.240Z,5.33
2019-02-22T06:33:52.660Z,5.29
2019-02-22T06:35:01.267Z,5.24
2019-02-22T06:36:10.093Z,5.20
2019-02-22T06:37:18.543Z,5.18
2019-02-22T06:38:27.000Z,5.16
2019-02-22T06:39:35.605Z,5.15
2019-02-22T06:40:44.202Z,5.16
2019-02-22T06:41:52.565Z,5.17
2019-02-22T06:43:00.856Z,5.13
2019-02-22T06:44:11.915Z,5.08
2019-02-22T06:45:19.902Z,5.11
2019-02-22T06:46:28.175Z,5.08
2019-02-22T06:47:36.895Z,5.08
2019-02-22T06:48:45.366Z,5.03
2019-02-22T06:49:53.560Z,4.94
2019-02-22T06:51:02.456Z,4.92
2019-02-22T06:52:10.986Z,4.93
2019-02-22T06:53:19.750Z,4.95
2019-02-22T06:54:28.008Z,4.96
2019-02-22T06:55:36.818Z,4.94
2019-02-22T06:56:45.022Z,4.93
2019-02-22T06:57:53.299Z,4.94
2019-02-22T06:59:02.122Z,4.93
2019-02-22T07:00:13.562Z,4.87
2019-02-22T07:01:21.861Z,4.82
2019-02-22T07:02:30.601Z,4.85
2019-02-22T07:03:39.073Z,4.79
2019-02-22T07:04:47.594Z,4.74
2019-02-22T07:05:55.919Z,4.72
2019-02-22T07:07:04.523Z,4.72
2019-02-22T07:08:14.454Z,4.73
2019-02-22T07:09:22.839Z,4.74
2019-02-22T07:10:33.053Z,4.74
2019-02-22T07:11:55.620Z,4.71
2019-02-22T07:13:05.252Z,4.73
2019-02-22T07:14:13.480Z,4.73
2019-02-22T07:15:22.031Z,4.73
2019-02-22T07:16:30.244Z,4.76
2019-02-22T07:17:38.766Z,4.78
2019-02-22T07:18:47.087Z,4.77
2019-02-22T07:19:55.395Z,4.77
2019-02-22T07:21:03.965Z,4.77
2019-02-22T07:22:13.475Z,4.75
2019-02-22T07:23:22.139Z,4.72
2019-02-22T07:24:30.687Z,4.70
2019-02-22T07:25:38.981Z,4.71
2019-02-22T07:26:47.038Z,4.70
2019-02-22T07:27:55.735Z,4.69
2019-02-22T07:29:04.166Z,4.70
2019-02-22T07:30:13.520Z,4.68
2019-02-22T07:31:21.645Z,4.65
2019-02-22T07:32:30.418Z,4.63
2019-02-22T07:33:38.549Z,4.61
2019-02-22T07:34:47.078Z,4.62
2019-02-22T07:35:56.197Z,4.64
2019-02-22T07:37:04.825Z,4.66
2019-02-22T07:38:12.981Z,4.67
2019-02-22T07:39:27.740Z,4.68
2019-02-22T07:40:31.333Z,4.69
2019-02-22T07:41:39.519Z,4.72
2019-02-22T07:42:48.104Z,4.62
2019-02-22T07:43:56.538Z,4.50
2019-02-22T07:45:07.627Z,4.40
2019-02-22T07:46:16.406Z,4.39
2019-02-22T07:47:24.702Z,4.42
2019-02-22T07:48:33.644Z,4.45
2019-02-22T07:49:42.119Z,4.41
2019-02-22T07:50:57.926Z,4.37
2019-02-22T07:52:00.516Z,4.36
2019-02-22T07:53:09.212Z,4.39
2019-02-22T07:54:17.511Z,4.42
2019-02-22T07:55:25.967Z,4.42
2019-02-22T07:56:34.566Z,4.43
2019-02-22T07:57:43.296Z,4.44
2019-02-22T07:58:52.102Z,4.41
2019-02-22T08:00:00.869Z,4.39
2019-02-22T08:01:10.650Z,4.40
2019-02-22T08:02:19.595Z,4.43
2019-02-22T08:03:28.328Z,4.46
2019-02-22T08:04:36.776Z,4.48
2019-02-22T08:05:45.048Z,4.50
2019-02-22T08:06:53.740Z,4.48
2019-02-22T08:08:02.292Z,4.43
2019-02-22T08:09:11.833Z,4.42
2019-02-22T08:10:20.440Z,4.42
2019-02-22T08:11:29.071Z,4.47
2019-02-22T08:12:37.833Z,4.46
2019-02-22T08:13:46.355Z,4.45
2019-02-22T08:14:55.175Z,4.41
2019-02-22T08:16:03.758Z,4.36
2019-02-22T08:17:14.620Z,4.36
2019-02-22T08:18:23.854Z,4.37
2019-02-22T08:19:32.237Z,4.39
2019-02-22T08:20:41.790Z,4.42
2019-02-22T08:21:50.289Z,4.42
2019-02-22T08:22:58.326Z,4.33
2019-02-22T08:24:06.485Z,4.27
2019-02-22T08:25:14.718Z,4.22
2019-02-22T08:26:22.993Z,4.21
2019-02-22T08:27:31.486Z,4.20
2019-02-22T08:28:39.669Z,4.23
2019-02-22T08:29:47.866Z,4.22
2019-02-22T08:30:56.018Z,4.23
2019-02-22T08:32:04.069Z,4.24
2019-02-22T08:33:12.065Z,4.26
2019-02-22T08:34:21.065Z,4.29
2019-02-22T08:35:29.388Z,4.34
2019-02-22T08:36:38.450Z,4.37
2019-02-22T08:37:47.125Z,4.39
2019-02-22T08:38:57.405Z,4.42
2019-02-22T08:40:08.826Z,4.43
2019-02-22T08:41:17.178Z,4.47
2019-02-22T08:42:25.688Z,4.48
2019-02-22T08:43:34.557Z,4.47
2019-02-22T08:44:42.907Z,4.48
2019-02-22T08:45:51.717Z,4.52
2019-02-22T08:47:00.221Z,4.55
2019-02-22T08:48:08.427Z,4.61
2019-02-22T08:49:17.235Z,4.64
2019-02-22T08:50:25.539Z,4.62
2019-02-22T08:51:34.436Z,4.65
2019-02-22T08:52:43.049Z,4.67
2019-02-22T08:53:51.420Z,4.69
2019-02-22T08:55:00.249Z,4.72
2019-02-22T08:56:08.578Z,4.72
2019-02-22T08:57:16.660Z,4.74
2019-02-22T08:58:24.988Z,4.75
2019-02-22T08:59:33.693Z,4.74
2019-02-22T09:00:42.660Z,4.70
2019-02-22T09:01:50.911Z,4.65
2019-02-22T09:02:59.711Z,4.59
2019-02-22T09:04:07.940Z,4.57
2019-02-22T09:05:16.410Z,4.56
2019-02-22T09:06:24.667Z,4.56
2019-02-22T09:07:33.088Z,4.57
2019-02-22T09:08:41.790Z,4.57
2019-02-22T09:09:50.153Z,4.54
2019-02-22T09:11:00.781Z,4.51
2019-02-22T09:12:08.080Z,4.46
2019-02-22T09:13:16.573Z,4.48
2019-02-22T09:14:24.735Z,4.48
2019-02-22T09:15:34.371Z,4.49
2019-02-22T09:16:42.720Z,4.52
2019-02-22T09:17:50.728Z,4.53
2019-02-22T09:18:59.226Z,4.55
2019-02-22T09:20:11.158Z,4.50
2019-02-22T09:21:19.495Z,4.46
2019-02-22T09:22:28.138Z,4.41
2019-02-22T09:23:36.529Z,4.36
2019-02-22T09:24:44.987Z,4.36
2019-02-22T09:25:53.948Z,4.34
2019-02-22T09:27:02.623Z,4.37
2019-02-22T09:28:10.786Z,4.40
2019-02-22T09:29:19.183Z,4.43
2019-02-22T09:30:27.528Z,4.45
2019-02-22T09:31:35.781Z,4.48
2019-02-22T09:32:44.407Z,4.48
2019-02-22T09:33:52.869Z,4.52
2019-02-22T09:35:01.722Z,4.56
2019-02-22T09:36:10.538Z,4.65
2019-02-22T09:37:19.025Z,4.70
2019-02-22T09:38:27.329Z,4.79
2019-02-22T09:39:36.281Z,4.87
2019-02-22T09:40:44.793Z,4.94
2019-02-22T09:41:53.160Z,5.02
2019-02-22T09:43:02.808Z,5.10
2019-02-22T09:44:11.821Z,5.16
2019-02-22T09:45:20.002Z,5.18
2019-02-22T09:46:28.376Z,5.21
2019-02-22T09:47:37.008Z,5.22
2019-02-22T09:48:45.419Z,5.18
2019-02-22T09:49:54.023Z,5.12
2019-02-22T09:51:02.271Z,5.08
2019-02-22T09:52:11.076Z,5.07
2019-02-22T09:53:19.286Z,5.01
2019-02-22T09:54:27.621Z,5.01
2019-02-22T09:55:36.448Z,4.99
2019-02-22T09:56:44.592Z,4.99
2019-02-22T09:57:53.049Z,5.02
2019-02-22T09:59:01.409Z,5.04
2019-02-22T10:00:13.813Z,5.05
2019-02-22T10:01:22.722Z,5.06
2019-02-22T10:02:30.787Z,5.04
2019-02-22T10:03:39.578Z,5.04
2019-02-22T10:04:54.905Z,5.04
2019-02-22T10:05:58.945Z,5.02
2019-02-22T10:07:07.468Z,5.05
2019-02-22T10:08:16.320Z,5.03
2019-02-22T10:09:24.687Z,5.05
2019-02-22T10:10:33.178Z,5.04
2019-02-22T10:11:41.535Z,5.02
2019-02-22T10:12:49.768Z,4.97
2019-02-22T10:14:06.240Z,4.94
2019-02-22T10:15:10.479Z,4.89
2019-02-22T10:16:19.401Z,4.89
2019-02-22T10:17:27.926Z,4.87
2019-02-22T10:18:36.607Z,4.87
2019-02-22T10:19:45.109Z,4.88
2019-02-22T10:20:53.685Z,4.87
2019-02-22T10:22:01.882Z,4.84
2019-02-22T10:23:10.552Z,4.85
2019-02-22T10:24:19.568Z,4.83
2019-02-22T10:25:27.690Z,4.82
2019-02-22T10:26:36.018Z,4.83
2019-02-22T10:27:44.683Z,4.84
2019-02-22T10:28:53.262Z,4.83
2019-02-22T10:30:02.156Z,4.84
2019-02-22T10:31:11.121Z,4.84
2019-02-22T10:32:19.936Z,4.81
2019-02-22T10:33:36.643Z,4.82
2019-02-22T10:34:40.395Z,4.82
2019-02-22T10:35:48.923Z,4.81
2019-02-22T10:36:57.432Z,4.79
2019-02-22T10:38:06.004Z,4.78
2019-02-22T10:39:14.532Z,4.77
2019-02-22T10:40:23.272Z,4.80
2019-02-22T10:41:31.978Z,4.79
2019-02-22T10:42:41.094Z,4.80
2019-02-22T10:43:49.276Z,4.87
2019-02-22T10:44:57.777Z,4.90
2019-02-22T10:46:06.409Z,4.98
2019-02-22T10:47:14.867Z,5.05
2019-02-22T10:48:23.121Z,5.08
2019-02-22T10:49:31.324Z,5.11
2019-02-22T10:50:40.362Z,5.17
2019-02-22T10:51:49.160Z,5.24
2019-02-22T10:53:02.266Z,5.35
2019-02-22T10:54:08.058Z,5.41
2019-02-22T10:55:16.302Z,5.47
2019-02-22T10:56:24.720Z,5.55
2019-02-22T10:57:33.801Z,5.67
2019-02-22T10:58:42.972Z,5.74
2019-02-22T10:59:51.615Z,5.81
2019-02-22T11:01:00.662Z,5.88
2019-02-22T11:02:09.600Z,5.90
2019-02-22T11:03:18.091Z,5.89
2019-02-22T11:04:26.720Z,5.90
2019-02-22T11:05:34.997Z,5.90
2019-02-22T11:06:44.215Z,5.90
2019-02-22T11:07:52.997Z,5.92
2019-02-22T11:09:01.642Z,5.91
2019-02-22T11:10:13.247Z,5.86
2019-02-22T11:11:21.650Z,5.85
2019-02-22T11:12:30.453Z,5.89
2019-02-22T11:13:39.058Z,5.95
2019-02-22T11:14:47.604Z,6.02
2019-02-22T11:15:56.246Z,6.07
2019-02-22T11:17:05.620Z,6.10
2019-02-22T11:18:14.364Z,6.14
2019-02-22T11:19:22.354Z,6.19
2019-02-22T11:20:31.013Z,6.24
2019-02-22T11:21:40.191Z,6.25
2019-02-22T11:22:49.255Z,6.28
2019-02-22T11:23:57.402Z,6.31
2019-02-22T11:25:08.485Z,6.33
2019-02-22T11:26:17.082Z,6.36
2019-02-22T11:27:25.999Z,6.42
2019-02-22T11:28:34.759Z,6.52
2019-02-22T11:29:43.771Z,6.61
2019-02-22T11:30:52.590Z,6.71
2019-02-22T11:32:00.992Z,6.78
2019-02-22T11:33:11.192Z,6.83
2019-02-22T11:34:19.842Z,6.85
2019-02-22T11:35:28.529Z,6.83
2019-02-22T11:36:37.071Z,6.85
2019-02-22T11:37:45.834Z,6.85
2019-02-22T11:38:54.173Z,6.86
2019-02-22T11:40:02.475Z,6.88
2019-02-22T11:41:10.900Z,6.94
2019-02-22T11:42:19.283Z,6.97
2019-02-22T11:43:27.983Z,6.99
2019-02-22T11:44:40.239Z,7.01
2019-02-22T11:45:46.578Z,7.08
2019-02-22T11:46:54.754Z,7.16
2019-02-22T11:48:09.112Z,7.25
2019-02-22T11:49:12.900Z,7.34
2019-02-22T11:50:21.272Z,7.37
2019-02-22T11:51:29.879Z,7.39
2019-02-22T11:52:38.664Z,7.41
2019-02-22T11:53:47.280Z,7.43
2019-02-22T11:54:55.696Z,7.42
2019-02-22T11:56:04.125Z,7.41
2019-02-22T11:57:12.732Z,7.37
2019-02-22T11:58:21.837Z,7.33
2019-02-22T11:59:30.057Z,7.26
2019-02-22T12:00:38.459Z,7.18
2019-02-22T12:01:47.176Z,7.15
2019-02-22T12:02:55.679Z,7.13
2019-02-22T12:04:04.583Z,7.13
2019-02-22T12:05:13.202Z,7.14
2019-02-22T12:06:21.627Z,7.14
2019-02-22T12:07:29.968Z,7.15
2019-02-22T12:08:38.788Z,7.13
2019-02-22T12:09:47.046Z,7.14
2019-02-22T12:10:55.186Z,7.18
2019-02-22T12:12:03.615Z,7.25
2019-02-22T12:13:12.485Z,7.27
2019-02-22T12:14:21.365Z,7.33
2019-02-22T12:15:31.539Z,7.34
2019-02-22T12:16:39.603Z,7.37
2019-02-22T12:17:48.374Z,7.43
2019-02-22T12:18:56.617Z,7.50
2019-02-22T12:20:06.552Z,7.53
2019-02-22T12:21:15.269Z,7.56
2019-02-22T12:22:24.138Z,7.65
2019-02-22T12:23:32.404Z,7.72
2019-02-22T12:24:40.576Z,7.82
2019-02-22T12:25:49.296Z,7.90
2019-02-22T12:26:57.678Z,7.93
2019-02-22T12:28:05.996Z,7.97
2019-02-22T12:29:14.317Z,7.96
2019-02-22T12:30:22.541Z,7.88
2019-02-22T12:31:30.515Z,7.84
2019-02-22T12:32:39.535Z,7.83
2019-02-22T12:33:48.179Z,7.84
2019-02-22T12:34:56.515Z,7.83
2019-02-22T12:36:05.037Z,7.81
2019-02-22T12:37:13.285Z,7.76
2019-02-22T12:38:21.627Z,7.78
2019-02-22T12:39:30.140Z,7.80
2019-02-22T12:40:38.571Z,7.85
2019-02-22T12:41:47.066Z,7.90
2019-02-22T12:42:55.840Z,7.94
2019-02-22T12:44:04.004Z,7.98
2019-02-22T12:45:15.576Z,7.99
2019-02-22T12:46:24.165Z,8.01
2019-02-22T12:47:32.550Z,8.06
2019-02-22T12:48:40.905Z,8.12
2019-02-22T12:49:49.373Z,8.17
2019-02-22T12:50:57.749Z,8.20
2019-02-22T12:52:06.068Z,8.22
2019-02-22T12:53:14.503Z,8.26
2019-02-22T12:54:23.844Z,8.31
2019-02-22T12:55:32.130Z,8.35
2019-02-22T12:56:57.875Z,8.39
2019-02-22T12:57:50.811Z,8.42
2019-02-22T12:58:59.167Z,8.46
2019-02-22T13:00:14.243Z,8.45
2019-02-22T13:01:24.548Z,8.44
2019-02-22T13:02:32.383Z,8.46
2019-02-22T13:03:41.040Z,8.49
2019-02-22T13:04:49.064Z,8.51
2019-02-22T13:05:58.391Z,8.54
2019-02-22T13:07:07.373Z,8.53
2019-02-22T13:08:15.884Z,8.50
2019-02-22T13:09:35.792Z,8.50
2019-02-22T13:10:34.385Z,8.49
2019-02-22T13:11:42.526Z,8.50
2019-02-22T13:12:50.959Z,8.53
2019-02-22T13:14:00.005Z,8.56
2019-02-22T13:15:14.412Z,8.60
2019-02-22T13:16:22.225Z,8.60
2019-02-22T13:17:31.297Z,8.61
2019-02-22T13:18:39.871Z,8.65
2019-02-22T13:19:48.369Z,8.65
2019-02-22T13:20:56.998Z,8.65
2019-02-22T13:22:05.668Z,8.67
2019-02-22T13:23:13.677Z,8.71
2019-02-22T13:24:21.773Z,8.72
2019-02-22T13:25:30.046Z,8.72
2019-02-22T13:26:39.116Z,8.69
2019-02-22T13:27:48.081Z,8.66
2019-02-22T13:28:56.207Z,8.64
2019-02-22T13:30:06.224Z,8.62
2019-02-22T13:31:14.560Z,8.58
2019-02-22T13:32:22.953Z,8.50
2019-02-22T13:33:31.141Z,8.46
2019-02-22T13:34:41.792Z,8.44
2019-02-22T13:35:49.178Z,8.40
2019-02-22T13:36:57.961Z,8.35
2019-02-22T13:38:06.483Z,8.27
2019-02-22T13:39:14.974Z,8.26
2019-02-22T13:40:23.305Z,8.26
2019-02-22T13:41:31.795Z,8.26
2019-02-22T13:42:40.105Z,8.23
2019-02-22T13:43:48.358Z,8.25
2019-02-22T13:44:56.721Z,8.27
2019-02-22T13:46:05.149Z,8.32
2019-02-22T13:47:13.127Z,8.37
2019-02-22T13:48:21.897Z,8.39
2019-02-22T13:49:30.126Z,8.42
2019-02-22T13:50:39.235Z,8.45
2019-02-22T13:51:47.654Z,8.48
2019-02-22T13:52:56.366Z,8.50
2019-02-22T13:54:04.673Z,8.51
2019-02-22T13:55:13.894Z,8.53
2019-02-22T13:56:29.666Z,8.54
2019-02-22T13:57:32.599Z,8.56
2019-02-22T13:58:41.095Z,8.58
2019-02-22T13:59:49.379Z,8.60
2019-02-22T14:00:57.967Z,8.61
2019-02-22T14:02:06.187Z,8.63
2019-02-22T14:03:14.464Z,8.66
2019-02-22T14:04:22.896Z,8.62
2019-02-22T14:05:31.160Z,8.55
2019-02-22T14:06:39.990Z,8.53
2019-02-22T14:07:58.120Z,8.52
2019-02-22T14:09:07.372Z,8.51
2019-02-22T14:10:15.581Z,8.48
2019-02-22T14:11:23.639Z,8.47
2019-02-22T14:12:31.941Z,8.47
2019-02-22T14:13:40.451Z,8.48
2019-02-22T14:14:48.851Z,8.46
2019-02-22T14:15:57.201Z,8.46
2019-02-22T14:17:05.460Z,8.47
2019-02-22T14:18:14.321Z,8.47
2019-02-22T14:19:22.628Z,8.44
2019-02-22T14:20:30.765Z,8.42
2019-02-22T14:21:38.925Z,8.41
2019-02-22T14:22:48.190Z,8.43
2019-02-22T14:23:56.421Z,8.46
2019-02-22T14:25:05.241Z,8.48
2019-02-22T14:26:13.262Z,8.43
2019-02-22T14:27:21.717Z,8.42
2019-02-22T14:28:30.129Z,8.42
2019-02-22T14:29:38.622Z,8.41
2019-02-22T14:30:46.675Z,8.40
2019-02-22T14:31:55.190Z,8.41
2019-02-22T14:33:03.528Z,8.42
2019-02-22T14:34:12.165Z,8.43
2019-02-22T14:35:20.446Z,8.43
2019-02-22T14:36:29.204Z,8.44
2019-02-22T14:37:37.798Z,8.42
2019-02-22T14:38:46.826Z,8.42
2019-02-22T14:40:03.131Z,8.40
2019-02-22T14:41:05.450Z,8.39
2019-02-22T14:42:13.786Z,8.37
2019-02-22T14:43:22.088Z,8.37
2019-02-22T14:44:30.638Z,8.36
2019-02-22T14:45:48.823Z,8.37
2019-02-22T14:46:49.183Z,8.37
2019-02-22T14:47:57.288Z,8.37
2019-02-22T14:49:05.688Z,8.37
2019-02-22T14:50:18.908Z,8.38
2019-02-22T14:51:27.393Z,8.36
2019-02-22T14:52:35.748Z,8.32
2019-02-22T14:53:44.017Z,8.29
2019-02-22T14:54:52.523Z,8.22
2019-02-22T14:56:01.185Z,8.19
2019-02-22T14:57:09.442Z,8.15
2019-02-22T14:58:17.858Z,8.12
2019-02-22T14:59:26.603Z,8.08
2019-02-22T15:00:35.077Z,8.03
2019-02-22T15:01:43.529Z,7.98
2019-02-22T15:02:51.772Z,7.95
2019-02-22T15:04:00.672Z,7.92
2019-02-22T15:05:11.525Z,7.88
2019-02-22T15:06:19.517Z,7.84
2019-02-22T15:07:27.631Z,7.81
2019-02-22T15:08:35.879Z,7.77
2019-02-22T15:09:43.875Z,7.73
2019-02-22T15:10:52.007Z,7.63
2019-02-22T15:11:59.980Z,7.58
2019-02-22T15:13:08.457Z,7.54
2019-02-22T15:14:18.099Z,7.50